createdAt,value
2017-08-27T00:00:16.406Z,67.08
2017-08-27T00:01:16.403Z,67.18
2017-08-27T00:02:16.387Z,66.88
2017-08-27T00:03:16.373Z,66.98
2017-08-27T00:04:16.371Z,66.78
2017-08-27T00:05:16.354Z,67.27
2017-08-27T00:06:16.387Z,67.08
2017-08-27T00:07:16.347Z,67.27
2017-08-27T00:08:16.342Z,67.37
2017-08-27T00:09:16.338Z,67.27
2017-08-27T00:10:16.322Z,67.08
2017-08-27T00:11:16.322Z,67.08
2017-08-27T00:12:16.319Z,67.18
2017-08-27T00:13:16.291Z,67.37
2017-08-27T00:14:16.303Z,67.18
2017-08-27T00:15:16.268Z,66.98
2017-08-27T00:16:16.270Z,67.08
2017-08-27T00:17:16.292Z,67.08
2017-08-27T00:18:16.258Z,66.98
2017-08-27T00:19:16.236Z,67.27
2017-08-27T00:20:16.220Z,66.95
2017-08-27T00:21:16.240Z,66.95
2017-08-27T00:22:16.198Z,67.24
2017-08-27T00:23:16.201Z,67.43
2017-08-27T00:24:16.181Z,67.14
2017-08-27T00:25:16.167Z,67.08
2017-08-27T00:26:16.185Z,67.53
2017-08-27T00:27:16.164Z,67.91
2017-08-27T00:28:16.151Z,67.14
2017-08-27T00:29:16.135Z,67.08
2017-08-27T00:30:16.149Z,67.43
2017-08-27T00:31:16.119Z,67.53
2017-08-27T00:32:16.101Z,67.24
2017-08-27T00:33:16.110Z,67.43
2017-08-27T00:34:16.087Z,67.91
2017-08-27T00:35:16.087Z,67.91
2017-08-27T00:36:16.084Z,67.72
2017-08-27T00:37:16.062Z,67.91
2017-08-27T00:38:16.059Z,67.91
2017-08-27T00:39:16.039Z,67.91
2017-08-27T00:40:16.033Z,68.11
2017-08-27T00:41:16.031Z,67.82
2017-08-27T00:42:16.023Z,68.01
2017-08-27T00:43:16.014Z,68.01
2017-08-27T00:44:16.017Z,67.82
2017-08-27T00:45:15.982Z,68.01
2017-08-27T00:46:15.966Z,67.82
2017-08-27T00:47:16.046Z,67.82
2017-08-27T00:48:15.953Z,68.11
2017-08-27T00:49:15.959Z,68.11
2017-08-27T00:50:15.959Z,68.21
2017-08-27T00:51:15.988Z,68.30
2017-08-27T00:52:15.941Z,68.21
2017-08-27T00:53:15.928Z,68.11
2017-08-27T00:54:15.935Z,68.01
2017-08-27T00:55:15.893Z,68.11
2017-08-27T00:56:15.895Z,68.17
2017-08-27T00:57:15.867Z,68.49
2017-08-27T00:58:15.858Z,68.30
2017-08-27T00:59:15.876Z,68.30
2017-08-27T01:00:15.851Z,68.30
2017-08-27T01:01:15.860Z,68.40
2017-08-27T01:02:15.825Z,68.46
2017-08-27T01:03:15.846Z,68.46
2017-08-27T01:04:15.822Z,68.46
2017-08-27T01:05:15.793Z,68.56
2017-08-27T01:06:15.790Z,68.46
2017-08-27T01:07:15.838Z,68.27
2017-08-27T01:08:15.867Z,68.46
2017-08-27T01:09:15.765Z,68.46
2017-08-27T01:10:15.762Z,68.46
2017-08-27T01:11:15.753Z,68.27
2017-08-27T01:12:15.727Z,68.75
2017-08-27T01:13:15.739Z,68.85
2017-08-27T01:14:15.718Z,68.66
2017-08-27T01:15:15.721Z,68.66
2017-08-27T01:16:15.726Z,68.75
2017-08-27T01:17:15.682Z,68.66
2017-08-27T01:18:15.662Z,68.75
2017-08-27T01:19:15.655Z,68.66
2017-08-27T01:20:15.659Z,68.75
2017-08-27T01:21:15.644Z,68.75
2017-08-27T01:22:15.702Z,68.27
2017-08-27T01:23:15.678Z,68.75
2017-08-27T01:24:15.605Z,69.04
2017-08-27T01:25:15.602Z,68.75
2017-08-27T01:26:15.592Z,68.85
2017-08-27T01:27:15.615Z,68.85
2017-08-27T01:28:15.571Z,69.43
2017-08-27T01:29:15.555Z,68.75
2017-08-27T01:30:15.602Z,68.95
2017-08-27T01:31:15.605Z,68.95
2017-08-27T01:32:15.538Z,68.75
2017-08-27T01:33:15.532Z,69.33
2017-08-27T01:34:15.526Z,69.24
2017-08-27T01:35:15.535Z,69.24
2017-08-27T01:36:15.497Z,68.95
2017-08-27T01:37:15.507Z,69.04
2017-08-27T01:38:15.487Z,69.20
2017-08-27T01:39:15.471Z,69.10
2017-08-27T01:40:15.465Z,69.14
2017-08-27T01:41:15.471Z,69.24
2017-08-27T01:42:15.462Z,68.91
2017-08-27T01:43:15.443Z,69.10
2017-08-27T01:44:15.427Z,69.10
2017-08-27T01:45:15.439Z,68.91
2017-08-27T01:46:15.423Z,69.30
2017-08-27T01:47:15.401Z,69.30
2017-08-27T01:48:15.388Z,69.49
2017-08-27T01:49:15.363Z,69.62
2017-08-27T01:50:15.374Z,69.49
2017-08-27T01:51:15.357Z,69.59
2017-08-27T01:52:15.357Z,69.59
2017-08-27T01:53:15.347Z,69.59
2017-08-27T01:54:15.340Z,69.40
2017-08-27T01:55:15.319Z,69.40
2017-08-27T01:56:15.293Z,69.40
2017-08-27T01:57:15.299Z,69.40
2017-08-27T01:58:15.312Z,70.17
2017-08-27T01:59:15.283Z,69.78
2017-08-27T02:00:15.263Z,69.40
2017-08-27T02:01:15.287Z,69.78
2017-08-27T02:02:15.237Z,69.98
2017-08-27T02:03:15.241Z,69.98
2017-08-27T02:04:15.229Z,69.78
2017-08-27T02:05:15.203Z,69.98
2017-08-27T02:06:15.235Z,70.17
2017-08-27T02:07:15.216Z,70.17
2017-08-27T02:08:15.191Z,69.98
2017-08-27T02:09:15.175Z,69.98
2017-08-27T02:10:15.173Z,70.17
2017-08-27T02:11:15.151Z,69.98
2017-08-27T02:12:15.197Z,69.98
2017-08-27T02:13:15.135Z,69.88
2017-08-27T02:14:15.122Z,69.68
2017-08-27T02:15:15.120Z,69.88
2017-08-27T02:16:15.116Z,69.98
2017-08-27T02:17:15.103Z,69.98
2017-08-27T02:18:15.087Z,69.98
2017-08-27T02:19:15.068Z,69.78
2017-08-27T02:20:15.055Z,69.59
2017-08-27T02:21:15.082Z,69.94
2017-08-27T02:22:15.061Z,69.74
2017-08-27T02:23:15.309Z,69.88
2017-08-27T02:24:15.200Z,69.84
2017-08-27T02:25:15.026Z,69.65
2017-08-27T02:26:15.173Z,70.04
2017-08-27T02:27:15.364Z,70.14
2017-08-27T02:28:15.252Z,69.94
2017-08-27T02:29:15.138Z,69.84
2017-08-27T02:30:15.071Z,70.04
2017-08-27T02:31:15.016Z,69.94
2017-08-27T02:32:14.978Z,70.04
2017-08-27T02:33:15.014Z,69.88
2017-08-27T02:34:15.016Z,69.56
2017-08-27T02:35:15.058Z,70.07
2017-08-27T02:36:14.944Z,70.04
2017-08-27T02:37:15.058Z,69.84
2017-08-27T02:38:14.961Z,70.17
2017-08-27T02:39:15.007Z,70.26
2017-08-27T02:40:14.931Z,70.32
2017-08-27T02:41:15.007Z,70.52
2017-08-27T02:42:14.912Z,70.23
2017-08-27T02:43:14.944Z,70.23
2017-08-27T02:44:14.920Z,70.42
2017-08-27T02:45:14.918Z,70.52
2017-08-27T02:46:14.957Z,70.62
2017-08-27T02:47:14.855Z,70.52
2017-08-27T02:48:14.921Z,70.42
2017-08-27T02:49:14.895Z,70.52
2017-08-27T02:50:14.849Z,70.32
2017-08-27T02:51:14.877Z,70.52
2017-08-27T02:52:14.959Z,70.23
2017-08-27T02:53:14.809Z,70.42
2017-08-27T02:54:14.829Z,69.94
2017-08-27T02:55:14.760Z,70.42
2017-08-27T02:56:14.778Z,70.32
2017-08-27T02:57:14.780Z,70.42
2017-08-27T02:58:14.768Z,70.42
2017-08-27T02:59:14.774Z,70.23
2017-08-27T03:00:14.760Z,70.32
2017-08-27T03:01:14.716Z,70.42
2017-08-27T03:02:14.697Z,70.14
2017-08-27T03:03:14.656Z,70.14
2017-08-27T03:04:14.701Z,70.23
2017-08-27T03:05:14.748Z,70.23
2017-08-27T03:06:14.719Z,70.32
2017-08-27T03:07:14.706Z,70.42
2017-08-27T03:08:14.755Z,71.00
2017-08-27T03:09:14.652Z,70.81
2017-08-27T03:10:14.652Z,70.72
2017-08-27T03:11:14.655Z,70.90
2017-08-27T03:12:14.607Z,70.90
2017-08-27T03:13:14.659Z,70.90
2017-08-27T03:14:14.601Z,70.81
2017-08-27T03:15:14.523Z,70.23
2017-08-27T03:16:14.649Z,70.20
2017-08-27T03:17:14.548Z,70.39
2017-08-27T03:18:14.513Z,70.20
2017-08-27T03:19:14.552Z,70.29
2017-08-27T03:20:14.522Z,70.29
2017-08-27T03:21:14.536Z,70.20
2017-08-27T03:22:14.549Z,70.52
2017-08-27T03:23:14.530Z,70.39
2017-08-27T03:24:14.456Z,70.20
2017-08-27T03:25:14.481Z,70.29
2017-08-27T03:26:14.490Z,70.68
2017-08-27T03:27:14.494Z,70.39
2017-08-27T03:28:14.479Z,70.68
2017-08-27T03:29:15.017Z,70.39
2017-08-27T03:30:14.424Z,70.68
2017-08-27T03:31:14.359Z,70.20
2017-08-27T03:32:14.383Z,70.68
2017-08-27T03:33:14.333Z,70.68
2017-08-27T03:34:14.395Z,71.06
2017-08-27T03:35:14.427Z,70.68
2017-08-27T03:36:14.417Z,71.06
2017-08-27T03:37:14.375Z,70.58
2017-08-27T03:38:14.375Z,70.78
2017-08-27T03:39:14.304Z,71.06
2017-08-27T03:40:14.293Z,70.78
2017-08-27T03:41:14.340Z,70.87
2017-08-27T03:42:14.305Z,70.78
2017-08-27T03:43:14.279Z,70.87
2017-08-27T03:44:14.324Z,70.58
2017-08-27T03:45:14.311Z,70.87
2017-08-27T03:46:14.315Z,71.06
2017-08-27T03:47:14.366Z,70.87
2017-08-27T03:48:14.206Z,70.68
2017-08-27T03:49:14.231Z,70.87
2017-08-27T03:50:14.218Z,70.87
2017-08-27T03:51:14.231Z,70.97
2017-08-27T03:52:14.228Z,70.87
2017-08-27T03:53:14.203Z,71.06
2017-08-27T03:54:14.203Z,70.87
2017-08-27T03:55:14.196Z,70.87
2017-08-27T03:56:14.234Z,70.87
2017-08-27T03:57:14.196Z,70.68
2017-08-27T03:58:14.142Z,70.58
2017-08-27T03:59:14.141Z,71.26
2017-08-27T04:00:14.142Z,70.78
2017-08-27T04:01:14.125Z,71.06
2017-08-27T04:02:14.088Z,70.84
2017-08-27T04:03:14.080Z,70.64
2017-08-27T04:04:14.139Z,70.68
2017-08-27T04:05:14.110Z,70.87
2017-08-27T04:06:14.043Z,70.78
2017-08-27T04:07:14.135Z,70.87
2017-08-27T04:08:14.113Z,71.03
2017-08-27T04:09:14.032Z,70.64
2017-08-27T04:10:14.093Z,70.87
2017-08-27T04:11:14.090Z,70.68
2017-08-27T04:12:14.071Z,70.78
2017-08-27T04:13:14.049Z,70.78
2017-08-27T04:14:13.975Z,70.64
2017-08-27T04:15:13.933Z,70.64
2017-08-27T04:16:14.100Z,70.94
2017-08-27T04:17:14.103Z,70.84
2017-08-27T04:18:13.974Z,70.94
2017-08-27T04:19:14.036Z,70.78
2017-08-27T04:20:13.968Z,70.64
2017-08-27T04:21:13.939Z,70.94
2017-08-27T04:22:13.923Z,70.74
2017-08-27T04:23:15.822Z,70.54
2017-08-27T04:24:14.013Z,70.84
2017-08-27T04:25:13.939Z,70.74
2017-08-27T04:26:14.087Z,70.84
2017-08-27T04:27:13.928Z,70.84
2017-08-27T04:28:14.016Z,70.84
2017-08-27T04:29:14.052Z,70.84
2017-08-27T04:30:13.899Z,70.84
2017-08-27T04:31:13.878Z,71.42
2017-08-27T04:32:13.933Z,71.22
2017-08-27T04:33:13.868Z,71.51
2017-08-27T04:34:13.901Z,71.42
2017-08-27T04:35:13.856Z,71.51
2017-08-27T04:36:13.860Z,71.42
2017-08-27T04:37:13.720Z,71.32
2017-08-27T04:38:13.824Z,71.32
2017-08-27T04:39:13.908Z,71.42
2017-08-27T04:40:13.830Z,71.42
2017-08-27T04:41:13.827Z,71.32
2017-08-27T04:42:13.817Z,71.42
2017-08-27T04:43:13.684Z,71.32
2017-08-27T04:44:13.859Z,71.32
2017-08-27T04:45:13.901Z,71.80
2017-08-27T04:46:13.744Z,71.32
2017-08-27T04:47:13.840Z,71.42
2017-08-27T04:48:14.276Z,71.70
2017-08-27T04:49:13.894Z,71.70
2017-08-27T04:50:13.920Z,71.61
2017-08-27T04:51:14.022Z,71.80
2017-08-27T04:52:13.782Z,71.42
2017-08-27T04:53:14.045Z,71.70
2017-08-27T04:54:14.333Z,71.61
2017-08-27T04:55:13.985Z,71.42
2017-08-27T04:56:14.158Z,71.32
2017-08-27T04:57:13.888Z,71.80
2017-08-27T04:58:14.116Z,71.80
2017-08-27T04:59:14.033Z,71.32
2017-08-27T05:00:13.914Z,71.51
2017-08-27T05:01:14.091Z,71.42
2017-08-27T05:02:13.613Z,71.51
2017-08-27T05:03:13.582Z,71.70
2017-08-27T05:04:13.589Z,71.80
2017-08-27T05:05:13.665Z,71.80
2017-08-27T05:06:13.649Z,72.00
2017-08-27T05:07:13.516Z,71.80
2017-08-27T05:08:13.681Z,72.09
2017-08-27T05:09:13.416Z,71.90
2017-08-27T05:10:13.473Z,71.90
2017-08-27T05:11:13.522Z,72.00
2017-08-27T05:12:13.516Z,71.70
2017-08-27T05:13:13.552Z,72.19
2017-08-27T05:14:13.344Z,72.09
2017-08-27T05:15:13.489Z,72.19
2017-08-27T05:16:13.381Z,72.00
2017-08-27T05:17:13.378Z,72.00
2017-08-27T05:18:13.327Z,71.90
2017-08-27T05:19:13.524Z,71.70
2017-08-27T05:20:13.458Z,72.00
2017-08-27T05:21:13.293Z,71.90
2017-08-27T05:22:13.266Z,71.90
2017-08-27T05:23:13.295Z,71.90
2017-08-27T05:24:13.199Z,71.90
2017-08-27T05:25:13.218Z,71.80
2017-08-27T05:26:13.212Z,72.03
2017-08-27T05:27:13.296Z,71.70
2017-08-27T05:28:13.293Z,72.09
2017-08-27T05:29:13.257Z,72.13
2017-08-27T05:30:13.149Z,71.80
2017-08-27T05:31:13.250Z,72.09
2017-08-27T05:32:13.171Z,72.03
2017-08-27T05:33:13.158Z,71.90
2017-08-27T05:34:13.126Z,72.38
2017-08-27T05:35:13.330Z,72.09
2017-08-27T05:36:13.231Z,72.13
2017-08-27T05:37:13.356Z,72.22
2017-08-27T05:38:13.244Z,71.94
2017-08-27T05:39:13.225Z,71.26
2017-08-27T05:40:13.228Z,71.94
2017-08-27T05:41:13.095Z,71.45
2017-08-27T05:42:13.104Z,72.03
2017-08-27T05:43:13.043Z,71.55
2017-08-27T05:44:13.155Z,71.74
2017-08-27T05:45:13.068Z,71.45
2017-08-27T05:46:13.295Z,71.64
2017-08-27T05:47:13.081Z,72.03
2017-08-27T05:48:13.082Z,71.94
2017-08-27T05:49:13.036Z,71.84
2017-08-27T05:50:12.976Z,71.94
2017-08-27T05:51:12.975Z,71.74
2017-08-27T05:52:13.004Z,71.94
2017-08-27T05:53:13.009Z,72.22
2017-08-27T05:54:12.995Z,72.32
2017-08-27T05:55:13.002Z,72.22
2017-08-27T05:56:13.011Z,71.84
2017-08-27T05:57:12.939Z,72.03
2017-08-27T05:58:12.924Z,72.32
2017-08-27T05:59:12.952Z,72.61
2017-08-27T06:00:12.847Z,71.94
2017-08-27T06:01:12.873Z,72.22
2017-08-27T06:02:12.926Z,72.26
2017-08-27T06:03:12.900Z,72.61
2017-08-27T06:04:12.852Z,72.13
2017-08-27T06:05:12.939Z,71.88
2017-08-27T06:06:12.881Z,72.64
2017-08-27T06:07:12.807Z,71.88
2017-08-27T06:08:12.820Z,71.97
2017-08-27T06:09:12.855Z,72.64
2017-08-27T06:10:12.788Z,72.55
2017-08-27T06:11:12.894Z,72.64
2017-08-27T06:12:12.761Z,72.36
2017-08-27T06:13:12.846Z,72.45
2017-08-27T06:14:12.665Z,72.36
2017-08-27T06:15:12.678Z,72.36
2017-08-27T06:16:12.846Z,72.45
2017-08-27T06:17:12.716Z,72.45
2017-08-27T06:18:12.722Z,72.36
2017-08-27T06:19:12.707Z,72.55
2017-08-27T06:20:12.624Z,72.55
2017-08-27T06:21:12.703Z,72.55
2017-08-27T06:22:12.646Z,72.55
2017-08-27T06:23:12.733Z,72.55
2017-08-27T06:24:12.611Z,72.26
2017-08-27T06:25:12.604Z,72.26
2017-08-27T06:26:12.592Z,72.55
2017-08-27T06:27:12.614Z,72.84
2017-08-27T06:28:12.564Z,72.36
2017-08-27T06:29:12.653Z,72.45
2017-08-27T06:30:12.681Z,72.64
2017-08-27T06:31:12.493Z,72.84
2017-08-27T06:32:12.571Z,72.84
2017-08-27T06:33:12.531Z,72.84
2017-08-27T06:34:12.691Z,72.74
2017-08-27T06:35:12.671Z,72.36
2017-08-27T06:36:12.608Z,72.36
2017-08-27T06:37:12.520Z,72.55
2017-08-27T06:38:12.445Z,72.55
2017-08-27T06:39:12.484Z,72.45
2017-08-27T06:40:12.604Z,72.30
2017-08-27T06:41:12.554Z,72.39
2017-08-27T06:42:12.452Z,72.78
2017-08-27T06:43:12.546Z,72.68
2017-08-27T06:44:12.604Z,72.49
2017-08-27T06:45:12.582Z,72.58
2017-08-27T06:46:12.565Z,72.39
2017-08-27T06:47:12.413Z,72.68
2017-08-27T06:48:12.443Z,72.10
2017-08-27T06:49:12.407Z,71.81
2017-08-27T06:50:12.348Z,71.91
2017-08-27T06:51:12.398Z,72.10
2017-08-27T06:52:12.411Z,72.10
2017-08-27T06:53:12.345Z,72.20
2017-08-27T06:54:12.426Z,72.20
2017-08-27T06:55:12.338Z,72.20
2017-08-27T06:56:12.392Z,72.20
2017-08-27T06:57:12.272Z,72.52
2017-08-27T06:58:12.385Z,72.33
2017-08-27T06:59:12.304Z,72.14
2017-08-27T07:00:12.317Z,72.24
2017-08-27T07:01:12.301Z,72.14
2017-08-27T07:02:12.285Z,72.24
2017-08-27T07:03:12.259Z,71.84
2017-08-27T07:04:12.224Z,71.94
2017-08-27T07:07:26.976Z,71.94
2017-08-27T07:08:26.973Z,71.66
2017-08-27T07:10:50.539Z,71.84
2017-08-27T07:11:51.007Z,71.66
2017-08-27T07:12:50.433Z,71.56
2017-08-27T07:13:50.488Z,71.75
2017-08-27T07:14:50.289Z,71.66
2017-08-27T07:15:51.142Z,71.84
2017-08-27T07:16:50.547Z,71.75
2017-08-27T07:17:50.280Z,71.36
2017-08-27T07:18:50.530Z,71.46
2017-08-27T07:19:50.485Z,71.56
2017-08-27T07:20:50.216Z,71.46
2017-08-27T07:21:50.497Z,71.50
2017-08-27T07:22:50.798Z,71.59
2017-08-27T07:23:50.736Z,71.69
2017-08-27T07:24:48.900Z,71.50
2017-08-27T07:25:47.972Z,71.11
2017-08-27T07:26:47.995Z,71.01
2017-08-27T07:27:47.960Z,71.78
2017-08-27T07:28:47.976Z,71.69
2017-08-27T07:29:47.897Z,71.59
2017-08-27T07:30:47.963Z,71.01
2017-08-27T07:31:47.922Z,70.34
2017-08-27T07:32:47.854Z,70.82
2017-08-27T07:33:47.855Z,71.20
2017-08-27T07:34:47.881Z,70.62
2017-08-27T07:35:47.967Z,70.95
2017-08-27T07:36:47.935Z,70.56
2017-08-27T07:37:47.812Z,70.27
2017-08-27T07:38:47.947Z,70.56
2017-08-27T07:39:47.793Z,69.31
2017-08-27T07:40:47.871Z,69.31
2017-08-27T07:41:47.790Z,70.27
2017-08-27T07:42:47.829Z,70.27
2017-08-27T07:43:47.851Z,70.47
2017-08-27T07:44:47.822Z,70.18
2017-08-27T07:45:47.753Z,70.56
2017-08-27T07:46:47.775Z,70.56
2017-08-27T07:47:47.768Z,70.11
2017-08-27T07:48:47.721Z,68.85
2017-08-27T07:49:47.841Z,69.43
2017-08-27T07:50:47.755Z,69.82
2017-08-27T07:51:47.889Z,70.01
2017-08-27T07:52:47.871Z,69.73
2017-08-27T07:53:47.806Z,69.34
2017-08-27T07:54:47.755Z,69.24
2017-08-27T07:55:47.704Z,69.53
2017-08-27T07:56:47.730Z,69.53
2017-08-27T07:57:47.710Z,69.63
2017-08-27T07:58:47.746Z,68.76
2017-08-27T07:59:47.784Z,69.15
2017-08-27T08:00:47.756Z,68.95
2017-08-27T08:01:47.669Z,68.60
2017-08-27T08:02:47.720Z,68.99
2017-08-27T08:03:47.662Z,69.37
2017-08-27T08:04:47.783Z,69.37
2017-08-27T08:05:47.643Z,69.57
2017-08-27T08:06:47.582Z,69.37
2017-08-27T08:07:47.612Z,69.76
2017-08-27T08:08:47.624Z,69.18
2017-08-27T08:09:47.590Z,68.50
2017-08-27T08:10:47.588Z,68.89
2017-08-27T08:11:47.652Z,68.79
2017-08-27T08:12:47.777Z,69.18
2017-08-27T08:13:47.694Z,69.47
2017-08-27T08:14:47.589Z,69.27
2017-08-27T08:15:47.536Z,68.89
2017-08-27T08:16:47.656Z,68.79
2017-08-27T08:17:47.504Z,68.24
2017-08-27T08:18:47.507Z,68.73
2017-08-27T08:19:47.529Z,68.44
2017-08-27T08:20:47.506Z,68.34
2017-08-27T08:21:47.614Z,68.63
2017-08-27T08:22:47.499Z,68.44
2017-08-27T08:23:47.472Z,66.99
2017-08-27T08:24:47.498Z,67.47
2017-08-27T08:25:47.586Z,68.05
2017-08-27T08:26:47.447Z,68.28
2017-08-27T08:27:47.533Z,68.18
2017-08-27T08:28:47.553Z,68.96
2017-08-27T08:29:47.437Z,68.28
2017-08-27T08:30:47.444Z,67.79
2017-08-27T08:31:47.476Z,67.40
2017-08-27T08:32:47.469Z,66.72
2017-08-27T08:33:47.330Z,67.21
2017-08-27T08:34:47.444Z,67.40
2017-08-27T08:35:47.356Z,67.21
2017-08-27T08:36:47.334Z,67.14
2017-08-27T08:37:47.341Z,67.63
2017-08-27T08:38:47.368Z,67.14
2017-08-27T08:39:47.356Z,66.56
2017-08-27T08:40:47.284Z,67.24
2017-08-27T08:41:47.295Z,67.34
2017-08-27T08:42:47.311Z,67.14
2017-08-27T08:43:47.311Z,67.24
2017-08-27T08:44:47.372Z,66.47
2017-08-27T08:45:47.333Z,66.30
2017-08-27T08:46:47.921Z,66.60
2017-08-27T08:47:47.482Z,66.50
2017-08-27T08:48:47.549Z,64.95
2017-08-27T08:49:49.058Z,66.21
2017-08-27T08:50:47.466Z,66.21
2017-08-27T08:51:47.418Z,63.59
2017-08-27T08:52:47.415Z,65.05
2017-08-27T08:53:47.180Z,65.33
2017-08-27T08:54:47.189Z,65.05
2017-08-27T08:55:47.187Z,63.78
2017-08-27T08:56:47.211Z,64.30
2017-08-27T08:57:47.190Z,64.75
2017-08-27T08:58:47.158Z,63.81
2017-08-27T08:59:47.142Z,63.32
2017-08-27T09:00:47.113Z,64.11
2017-08-27T09:01:47.036Z,64.40
2017-08-27T09:02:47.161Z,64.69
2017-08-27T09:03:47.111Z,64.49
2017-08-27T09:04:47.165Z,62.94
2017-08-27T09:05:47.183Z,63.42
2017-08-27T09:06:47.087Z,62.94
2017-08-27T09:07:46.988Z,62.45
2017-08-27T09:08:47.062Z,62.65
2017-08-27T09:09:47.068Z,63.32
2017-08-27T09:10:47.122Z,63.71
2017-08-27T09:11:47.049Z,63.23
2017-08-27T09:12:47.126Z,63.45
2017-08-27T09:13:47.020Z,63.71
2017-08-27T09:14:47.126Z,63.36
2017-08-27T09:15:47.081Z,63.17
2017-08-27T09:16:47.125Z,63.55
2017-08-27T09:17:47.129Z,62.38
2017-08-27T09:18:47.087Z,61.22
2017-08-27T09:19:46.979Z,61.51
2017-08-27T09:20:47.068Z,62.58
2017-08-27T09:21:46.989Z,62.87
2017-08-27T09:22:47.026Z,63.45
2017-08-27T09:23:47.062Z,63.59
2017-08-27T09:24:47.145Z,62.00
2017-08-27T09:25:46.918Z,62.71
2017-08-27T09:26:46.995Z,62.71
2017-08-27T09:27:46.896Z,63.39
2017-08-27T09:28:46.980Z,63.00
2017-08-27T09:29:46.856Z,62.32
2017-08-27T09:30:46.902Z,61.74
2017-08-27T09:31:46.818Z,61.74
2017-08-27T09:32:46.846Z,60.38
2017-08-27T09:33:46.879Z,61.15
2017-08-27T09:34:46.872Z,61.74
2017-08-27T09:35:46.867Z,62.41
2017-08-27T09:36:46.740Z,62.32
2017-08-27T09:37:46.740Z,61.64
2017-08-27T09:38:46.832Z,62.16
2017-08-27T09:39:46.810Z,62.06
2017-08-27T09:40:46.845Z,61.08
2017-08-27T09:41:46.733Z,61.77
2017-08-27T09:42:46.795Z,62.26
2017-08-27T09:43:46.739Z,62.64
2017-08-27T09:44:46.733Z,60.41
2017-08-27T09:45:46.698Z,60.60
2017-08-27T09:46:46.699Z,60.79
2017-08-27T09:47:46.753Z,61.28
2017-08-27T09:48:46.702Z,60.70
2017-08-27T09:49:46.691Z,61.57
2017-08-27T09:50:46.736Z,61.47
2017-08-27T09:51:46.609Z,60.21
2017-08-27T09:52:46.590Z,60.21
2017-08-27T09:53:46.625Z,60.41
2017-08-27T09:54:46.622Z,60.70
2017-08-27T09:55:46.635Z,60.02
2017-08-27T09:56:46.586Z,58.56
2017-08-27T09:57:46.583Z,59.92
2017-08-27T09:58:46.673Z,60.70
2017-08-27T09:59:46.600Z,61.67
2017-08-27T10:00:46.663Z,60.21
2017-08-27T10:01:46.688Z,60.11
2017-08-27T10:02:46.616Z,60.14
2017-08-27T10:03:46.771Z,59.75
2017-08-27T10:04:46.711Z,58.78
2017-08-27T10:05:46.666Z,58.59
2017-08-27T10:06:46.612Z,58.59
2017-08-27T10:07:46.735Z,58.69
2017-08-27T10:08:46.647Z,57.42
2017-08-27T10:09:46.504Z,57.90
2017-08-27T10:10:46.644Z,60.14
2017-08-27T10:11:46.532Z,57.61
2017-08-27T10:12:46.686Z,57.93
2017-08-27T10:13:46.542Z,58.42
2017-08-27T10:14:46.488Z,59.78
2017-08-27T10:15:46.492Z,58.81
2017-08-27T10:16:46.491Z,58.13
2017-08-27T10:17:46.611Z,59.00
2017-08-27T10:18:46.549Z,58.64
2017-08-27T10:19:46.459Z,57.18
2017-08-27T10:20:46.478Z,56.50
2017-08-27T10:21:46.440Z,56.79
2017-08-27T10:22:46.507Z,57.47
2017-08-27T10:23:46.517Z,57.28
2017-08-27T10:24:46.471Z,56.43
2017-08-27T10:25:46.829Z,53.60
2017-08-27T10:26:46.526Z,53.02
2017-08-27T10:27:46.472Z,52.83
2017-08-27T10:28:46.437Z,54.09
2017-08-27T10:29:46.467Z,54.68
2017-08-27T10:30:46.369Z,55.16
2017-08-27T10:31:46.421Z,53.53
2017-08-27T10:32:46.386Z,52.75
2017-08-27T10:33:46.517Z,54.70
2017-08-27T10:34:46.398Z,54.70
2017-08-27T10:35:46.379Z,54.90
2017-08-27T10:36:46.433Z,55.48
2017-08-27T10:37:46.320Z,54.44
2017-08-27T10:38:46.301Z,55.32
2017-08-27T10:39:46.297Z,56.20
2017-08-27T10:40:46.418Z,53.36
2017-08-27T10:41:46.349Z,52.78
2017-08-27T10:42:46.311Z,53.56
2017-08-27T10:43:46.310Z,54.14
2017-08-27T10:44:46.337Z,54.07
2017-08-27T10:45:46.282Z,53.68
2017-08-27T10:46:46.253Z,53.19
2017-08-27T10:47:46.227Z,55.05
2017-08-27T10:48:46.255Z,53.42
2017-08-27T10:49:46.254Z,53.61
2017-08-27T10:50:46.271Z,51.86
2017-08-27T10:51:46.897Z,50.49
2017-08-27T10:52:46.176Z,48.44
2017-08-27T10:53:46.266Z,50.12
2017-08-27T10:54:46.195Z,50.90
2017-08-27T10:55:46.214Z,48.75
2017-08-27T10:56:46.122Z,50.81
2017-08-27T10:57:46.237Z,50.54
2017-08-27T10:58:46.310Z,50.54
2017-08-27T10:59:46.145Z,50.63
2017-08-27T11:00:46.084Z,49.95
2017-08-27T11:01:46.062Z,50.54
2017-08-27T11:02:46.082Z,48.50
2017-08-27T11:03:46.049Z,49.87
2017-08-27T11:04:46.058Z,45.97
2017-08-27T11:05:46.045Z,47.24
2017-08-27T11:06:46.020Z,48.04
2017-08-27T11:07:46.106Z,48.53
2017-08-27T11:08:51.174Z,45.89
2017-08-27T11:09:46.577Z,45.59
2017-08-27T11:10:46.177Z,46.77
2017-08-27T11:11:46.149Z,47.55
2017-08-27T11:12:46.338Z,41.99
2017-08-27T11:13:46.650Z,45.03
2017-08-27T11:17:39.945Z,43.88
2017-08-27T11:18:40.235Z,41.23
2017-08-27T11:19:39.984Z,42.90
2017-08-27T11:20:39.179Z,42.80
2017-08-27T11:21:39.091Z,43.29
2017-08-27T11:22:40.073Z,42.72
2017-08-27T11:23:40.117Z,42.91
2017-08-27T11:24:39.742Z,43.80
2017-08-27T11:25:39.284Z,44.38
2017-08-27T11:26:39.903Z,42.55
2017-08-27T11:27:39.392Z,43.13
2017-08-27T11:28:39.329Z,40.68
2017-08-27T11:29:37.311Z,40.88
2017-08-27T11:30:37.724Z,41.27
2017-08-27T11:31:39.346Z,40.98
2017-08-27T11:32:37.025Z,41.96
2017-08-27T11:33:37.374Z,43.23
2017-08-27T11:34:37.130Z,43.04
2017-08-27T11:35:37.036Z,43.82
2017-08-27T11:36:36.923Z,43.82
2017-08-27T11:37:36.929Z,43.04
2017-08-27T11:38:36.968Z,42.74
2017-08-27T11:39:36.933Z,42.55
2017-08-27T11:40:36.961Z,41.86
2017-08-27T11:41:36.899Z,39.01
2017-08-27T11:42:36.904Z,41.08
2017-08-27T11:43:36.921Z,42.05
2017-08-27T11:44:37.079Z,43.13
2017-08-27T11:45:36.949Z,42.84
2017-08-27T11:46:36.972Z,42.15
2017-08-27T11:47:36.898Z,41.76
2017-08-27T11:48:36.933Z,41.96
2017-08-27T11:49:36.921Z,42.74
2017-08-27T11:50:36.815Z,41.86
2017-08-27T11:51:36.876Z,41.08
2017-08-27T11:52:37.003Z,41.47
2017-08-27T11:53:36.903Z,40.88
2017-08-27T11:54:36.701Z,41.47
2017-08-27T11:55:36.866Z,41.78
2017-08-27T11:56:36.742Z,42.55
2017-08-27T11:57:36.987Z,42.86
2017-08-27T11:58:36.873Z,42.37
2017-08-27T11:59:36.942Z,42.47
2017-08-27T12:00:38.502Z,40.90
2017-08-27T12:01:36.977Z,41.09
2017-08-27T12:02:36.983Z,41.09
2017-08-27T12:03:37.053Z,41.58
2017-08-27T12:04:36.836Z,40.41
2017-08-27T12:05:36.854Z,38.72
2017-08-27T12:06:37.051Z,40.01
2017-08-27T12:07:36.918Z,40.90
2017-08-27T12:08:36.662Z,40.70
2017-08-27T12:09:36.904Z,41.49
2017-08-27T12:10:36.802Z,41.49
2017-08-27T12:11:36.707Z,41.09
2017-08-27T12:12:36.694Z,39.43
2017-08-27T12:13:36.802Z,40.31
2017-08-27T12:14:36.737Z,40.70
2017-08-27T12:15:36.828Z,39.14
2017-08-27T12:16:36.789Z,39.72
2017-08-27T12:17:36.602Z,39.23
2017-08-27T12:18:36.694Z,38.23
2017-08-27T12:19:36.634Z,39.51
2017-08-27T12:20:36.666Z,40.39
2017-08-27T12:21:36.726Z,40.39
2017-08-27T12:22:36.850Z,41.47
2017-08-27T12:23:36.756Z,41.86
2017-08-27T12:24:36.731Z,42.25
2017-08-27T12:25:36.759Z,40.98
2017-08-27T12:26:36.733Z,41.37
2017-08-27T12:27:37.147Z,42.25
2017-08-27T12:28:36.737Z,42.25
2017-08-27T12:29:36.530Z,41.76
2017-08-27T12:30:36.627Z,41.86
2017-08-27T12:31:36.657Z,41.84
2017-08-27T12:32:36.650Z,40.66
2017-08-27T12:33:36.701Z,40.08
2017-08-27T12:34:36.612Z,40.95
2017-08-27T12:35:37.896Z,41.03
2017-08-27T12:36:37.022Z,40.84
2017-08-27T12:37:36.634Z,41.42
2017-08-27T12:38:36.494Z,42.02
2017-08-27T12:39:37.098Z,42.31
2017-08-27T12:42:49.478Z,42.68
2017-08-27T12:43:50.611Z,42.07
2017-08-27T12:44:49.523Z,42.27
2017-08-27T12:45:49.223Z,42.66
2017-08-27T12:46:49.265Z,42.85
2017-08-27T12:47:50.168Z,42.76
2017-08-27T12:48:49.902Z,42.95
2017-08-27T12:49:49.355Z,42.95
2017-08-27T12:50:51.725Z,43.63
2017-08-27T13:00:30.772Z,45.20
2017-08-27T13:01:31.093Z,46.47
2017-08-27T13:02:31.282Z,45.50
2017-08-27T13:03:31.080Z,44.42
2017-08-27T13:04:32.063Z,45.28
2017-08-27T13:05:30.503Z,45.28
2017-08-27T13:06:31.071Z,45.28
2017-08-27T13:07:30.377Z,42.64
2017-08-27T13:08:30.556Z,43.81
2017-08-27T13:09:30.406Z,44.40